Glady, West Virginia
Current Conditions -  °F | °C
As of 2:51 AM on Friday 19 Dec 2014 (Local Time) from KEKN Reporting Station
Overcast Overcast  
Wind Chill: 17°   Ceiling: 1300
Heat Index: 26°   Visibility: 10mi
Dew Point: 22°   Wind: 9mph
Humidity: 84%   Direction: 290°WNW
Pressure: 30.13"   Gusts: NA
Location:  38.8°N, 79.72°W
Report Text: KEKN 190751Z AUTO 29008KT 10SM OVC013 M03/M06 A3013 RMK AO2 SLP232 T10331056 TSNO
Loading
Personal Weather Stations






























Interactive Weather Map New forecast layout! Learn more

10-Day Weather Forecast

Advertisements
Track Severe Weather on mobile